createdAt,value
2018-03-14T00:00:20.188Z,-0.80
2018-03-14T00:02:46.714Z,-0.80
2018-03-14T00:05:13.350Z,-0.80
2018-03-14T00:07:39.854Z,-0.70
2018-03-14T00:10:07.182Z,-0.80
2018-03-14T00:12:39.735Z,-0.80
2018-03-14T00:15:06.317Z,-0.80
2018-03-14T00:17:32.781Z,-0.80
2018-03-14T00:19:59.432Z,-0.80
2018-03-14T00:22:33.070Z,-0.80
2018-03-14T00:24:59.666Z,-0.90
2018-03-14T00:27:26.207Z,-1.00
2018-03-14T00:29:52.702Z,-1.00
2018-03-14T00:32:19.214Z,-1.00
2018-03-14T00:34:45.841Z,-1.00
2018-03-14T00:37:13.189Z,-1.10
2018-03-14T00:39:39.708Z,-1.10
2018-03-14T00:42:06.164Z,-1.20
2018-03-14T00:44:32.986Z,-1.20
2018-03-14T00:46:59.472Z,-1.20
2018-03-14T00:49:25.996Z,-1.10
2018-03-14T00:51:53.314Z,-1.20
2018-03-14T00:54:19.851Z,-1.20
2018-03-14T00:56:46.367Z,-1.20
2018-03-14T00:59:12.890Z,-1.10
2018-03-14T01:01:40.258Z,-1.10
2018-03-14T01:04:06.788Z,-1.10
2018-03-14T01:06:33.373Z,-1.10
2018-03-14T01:08:59.852Z,-1.10
2018-03-14T01:11:26.604Z,-1.10
2018-03-14T01:13:53.163Z,-1.20
2018-03-14T01:16:19.673Z,-1.20
2018-03-14T01:18:46.153Z,-1.20
2018-03-14T01:21:12.713Z,-1.20
2018-03-14T01:23:39.921Z,-1.20
2018-03-14T01:26:06.580Z,-1.30
2018-03-14T01:28:33.076Z,-1.20
2018-03-14T01:30:59.612Z,-1.20
2018-03-14T01:33:26.117Z,-1.10
2018-03-14T01:35:52.583Z,-1.10
2018-03-14T01:38:19.019Z,-1.20
2018-03-14T01:40:45.641Z,-1.30
2018-03-14T01:43:12.081Z,-1.20
2018-03-14T01:45:38.574Z,-1.20
2018-03-14T01:48:05.097Z,-1.20
2018-03-14T01:50:31.773Z,-1.20
2018-03-14T01:56:02.188Z,-1.20
2018-03-14T01:58:28.663Z,-1.20
2018-03-14T02:00:55.145Z,-1.20
2018-03-14T02:03:21.688Z,-1.10
2018-03-14T02:05:48.231Z,-1.10
2018-03-14T02:08:14.753Z,-1.10
2018-03-14T02:10:42.038Z,-1.20
2018-03-14T02:13:08.540Z,-1.20
2018-03-14T02:15:35.096Z,-1.20
2018-03-14T02:18:01.569Z,-1.10
2018-03-14T02:20:28.165Z,-1.10
2018-03-14T02:22:54.718Z,-1.10
2018-03-14T02:25:21.261Z,-1.10
2018-03-14T02:27:47.869Z,-1.10
2018-03-14T02:30:14.423Z,-1.10
2018-03-14T02:32:40.982Z,-1.10
2018-03-14T02:35:07.493Z,-1.10
2018-03-14T02:37:34.755Z,-1.20
2018-03-14T02:40:01.233Z,-1.20
2018-03-14T02:42:27.832Z,-1.10
2018-03-14T02:44:54.370Z,-1.10
2018-03-14T02:47:20.824Z,-1.10
2018-03-14T02:49:47.360Z,-1.10
2018-03-14T02:52:13.925Z,-1.10
2018-03-14T02:54:40.392Z,-1.10
2018-03-14T02:57:06.963Z,-1.20
2018-03-14T02:59:33.723Z,-1.20
2018-03-14T03:02:00.221Z,-1.10
2018-03-14T03:04:26.749Z,-1.10
2018-03-14T03:06:53.281Z,-1.20
2018-03-14T03:09:19.809Z,-1.20
2018-03-14T03:11:46.298Z,-1.10
2018-03-14T03:14:12.757Z,-1.20
2018-03-14T03:16:39.306Z,-1.20
2018-03-14T03:19:05.796Z,-1.20
2018-03-14T03:21:32.285Z,-1.20
2018-03-14T03:24:00.142Z,-1.20
2018-03-14T03:26:26.685Z,-1.30
2018-03-14T03:28:53.152Z,-1.10
2018-03-14T03:31:19.673Z,-1.10
2018-03-14T03:33:46.493Z,-1.20
2018-03-14T03:36:12.987Z,-1.20
2018-03-14T03:38:39.439Z,-1.20
2018-03-14T03:41:05.920Z,-1.20
2018-03-14T03:43:32.483Z,-1.20
2018-03-14T03:45:59.018Z,-1.20
2018-03-14T03:48:26.399Z,-1.20
2018-03-14T03:50:52.888Z,-1.20
2018-03-14T03:53:20.154Z,-1.20
2018-03-14T03:55:47.434Z,-1.20
2018-03-14T03:58:13.913Z,-1.20
2018-03-14T04:00:40.422Z,-1.20
2018-03-14T04:03:06.950Z,-1.10
2018-03-14T04:05:33.416Z,-1.20
2018-03-14T04:07:59.879Z,-1.20
2018-03-14T04:10:27.094Z,-1.20
2018-03-14T04:12:53.606Z,-1.30
2018-03-14T04:15:20.043Z,-1.20
2018-03-14T04:17:47.318Z,-1.20
2018-03-14T04:20:13.784Z,-1.20
2018-03-14T04:22:40.255Z,-1.20
2018-03-14T04:25:06.743Z,-1.30
2018-03-14T04:27:33.271Z,-1.30
2018-03-14T04:29:59.788Z,-1.30
2018-03-14T04:32:27.003Z,-1.20
2018-03-14T04:34:53.505Z,-1.20
2018-03-14T04:37:20.014Z,-1.30
2018-03-14T04:39:46.589Z,-1.30
2018-03-14T04:42:13.079Z,-1.40
2018-03-14T04:44:39.579Z,-1.30
2018-03-14T04:47:06.016Z,-1.20
2018-03-14T04:49:32.482Z,-1.30
2018-03-14T04:51:58.924Z,-1.30
2018-03-14T04:54:26.324Z,-1.40
2018-03-14T04:56:53.618Z,-1.30
2018-03-14T04:59:20.066Z,-1.30
2018-03-14T05:01:46.570Z,-1.40
2018-03-14T05:04:13.024Z,-1.40
2018-03-14T05:06:39.521Z,-1.40
2018-03-14T05:09:06.022Z,-1.40
2018-03-14T05:11:32.545Z,-1.40
2018-03-14T05:13:59.055Z,-1.30
2018-03-14T05:16:25.510Z,-1.40
2018-03-14T05:18:52.882Z,-1.50
2018-03-14T05:21:20.099Z,-1.50
2018-03-14T05:23:46.588Z,-1.50
2018-03-14T05:26:13.815Z,-1.50
2018-03-14T05:28:40.433Z,-1.50
2018-03-14T05:31:06.898Z,-1.50
2018-03-14T05:33:33.373Z,-1.40
2018-03-14T05:35:59.910Z,-1.40
2018-03-14T05:38:28.346Z,-1.30
2018-03-14T05:40:54.965Z,-1.20
2018-03-14T05:43:21.451Z,-1.30
2018-03-14T05:45:48.096Z,-1.30
2018-03-14T05:48:14.654Z,-1.40
2018-03-14T05:50:41.285Z,-1.50
2018-03-14T05:53:07.700Z,-1.60
2018-03-14T05:55:34.185Z,-1.50
2018-03-14T05:58:01.386Z,-1.60
2018-03-14T06:00:27.968Z,-1.60
2018-03-14T06:02:54.410Z,-1.60
2018-03-14T06:05:20.982Z,-1.60
2018-03-14T06:07:47.404Z,-1.60
2018-03-14T06:10:14.594Z,-1.50
2018-03-14T06:12:41.153Z,-1.50
2018-03-14T06:15:07.711Z,-1.50
2018-03-14T06:17:34.356Z,-1.50
2018-03-14T06:20:00.896Z,-1.50
2018-03-14T06:22:27.385Z,-1.60
2018-03-14T06:24:53.873Z,-1.60
2018-03-14T06:27:20.401Z,-1.50
2018-03-14T06:29:46.986Z,-1.50
2018-03-14T06:32:13.657Z,-1.50
2018-03-14T06:34:40.121Z,-1.50
2018-03-14T06:37:07.387Z,-1.30
2018-03-14T06:39:33.861Z,-1.30
2018-03-14T06:42:00.354Z,-1.40
2018-03-14T06:44:27.525Z,-1.50
2018-03-14T06:46:54.808Z,-1.60
2018-03-14T06:49:21.985Z,-1.50
2018-03-14T06:51:48.542Z,-1.50
2018-03-14T06:54:15.897Z,-1.40
2018-03-14T06:56:43.255Z,-1.50
2018-03-14T06:59:22.652Z,-1.60
2018-03-14T07:02:01.145Z,-1.60
2018-03-14T07:04:39.691Z,-1.70
2018-03-14T07:07:06.306Z,-1.70
2018-03-14T07:09:33.590Z,-1.70
2018-03-14T07:12:00.041Z,-1.70
2018-03-14T07:14:26.533Z,-1.70
2018-03-14T07:16:53.569Z,-1.70
2018-03-14T07:19:20.630Z,-1.60
2018-03-14T07:21:47.356Z,-1.70
2018-03-14T07:24:14.189Z,-1.60
2018-03-14T07:26:40.730Z,-1.60
2018-03-14T07:29:08.207Z,-1.50
2018-03-14T07:31:35.710Z,-1.50
2018-03-14T07:34:04.043Z,-1.70
2018-03-14T07:36:31.731Z,-1.70
2018-03-14T07:38:58.318Z,-2.00
2018-03-14T07:41:25.663Z,-1.80
2018-03-14T07:43:52.289Z,-1.80
2018-03-14T07:46:18.793Z,-1.70
2018-03-14T07:48:45.525Z,-1.70
2018-03-14T07:51:12.189Z,-1.60
2018-03-14T07:53:39.398Z,-1.70
2018-03-14T07:56:05.935Z,-1.70
2018-03-14T07:58:33.761Z,-1.60
2018-03-14T08:01:00.447Z,-1.70
2018-03-14T08:03:27.253Z,-1.90
2018-03-14T08:05:54.812Z,-1.70
2018-03-14T08:08:27.171Z,-1.70
2018-03-14T08:10:54.648Z,-1.40
2018-03-14T08:13:21.949Z,-1.40
2018-03-14T08:15:48.478Z,-1.50
2018-03-14T08:18:15.000Z,-1.50
2018-03-14T08:20:41.581Z,-1.40
2018-03-14T08:23:08.189Z,-1.50
2018-03-14T08:25:34.782Z,-1.50
2018-03-14T08:28:01.277Z,-1.20
2018-03-14T08:30:27.846Z,-1.60
2018-03-14T08:32:55.085Z,-1.60
2018-03-14T08:35:21.622Z,-1.60
2018-03-14T08:37:48.241Z,-1.50
2018-03-14T08:40:14.819Z,-1.60
2018-03-14T08:42:41.340Z,-1.80
2018-03-14T08:45:08.717Z,-1.80
2018-03-14T08:47:35.259Z,-1.80
2018-03-14T08:50:01.879Z,-1.70
2018-03-14T08:52:28.408Z,-1.50
2018-03-14T08:54:54.887Z,-1.60
2018-03-14T08:57:21.463Z,-1.70
2018-03-14T08:59:48.071Z,-1.60
2018-03-14T09:02:15.613Z,-1.50
2018-03-14T09:04:42.287Z,-1.50
2018-03-14T09:07:09.276Z,-1.50
2018-03-14T09:09:36.923Z,-1.40
2018-03-14T09:12:04.338Z,-1.40
2018-03-14T09:14:30.904Z,-1.30
2018-03-14T09:16:57.461Z,-1.50
2018-03-14T09:19:24.101Z,-1.50
2018-03-14T09:21:51.357Z,-1.40
2018-03-14T09:24:18.069Z,-1.40
2018-03-14T09:26:44.682Z,-1.20
2018-03-14T09:29:11.456Z,-1.10
2018-03-14T09:31:38.835Z,-1.20
2018-03-14T09:34:06.552Z,-1.10
2018-03-14T09:36:33.205Z,-1.10
2018-03-14T09:38:59.790Z,-0.80
2018-03-14T09:41:26.301Z,-0.70
2018-03-14T09:43:52.834Z,-0.70
2018-03-14T09:46:19.332Z,-0.90
2018-03-14T09:48:46.014Z,-0.90
2018-03-14T09:51:14.253Z,-0.60
2018-03-14T09:53:41.422Z,-0.50
2018-03-14T09:56:07.966Z,-0.70
2018-03-14T09:58:35.274Z,-0.70
2018-03-14T10:01:02.069Z,-0.90
2018-03-14T10:03:28.673Z,-1.10
2018-03-14T10:05:57.361Z,-1.10
2018-03-14T10:08:24.241Z,-1.30
2018-03-14T10:10:51.462Z,-1.20
2018-03-14T10:13:17.962Z,-1.30
2018-03-14T10:15:44.810Z,-1.00
2018-03-14T10:18:11.471Z,-0.90
2018-03-14T10:20:37.989Z,-0.70
2018-03-14T10:23:04.908Z,-0.80
2018-03-14T10:25:31.467Z,-0.90
2018-03-14T10:27:59.183Z,-0.90
2018-03-14T10:30:26.415Z,-0.80
2018-03-14T10:32:52.960Z,-0.90
2018-03-14T10:35:19.514Z,-0.80
2018-03-14T10:37:47.224Z,-1.10
2018-03-14T10:40:13.822Z,-1.10
2018-03-14T10:42:41.424Z,-1.10
2018-03-14T10:45:08.032Z,-1.10
2018-03-14T10:47:34.686Z,-1.30
2018-03-14T10:50:01.795Z,-1.30
2018-03-14T10:52:28.873Z,-1.20
2018-03-14T10:54:55.535Z,-1.20
2018-03-14T10:57:23.090Z,-1.00
2018-03-14T10:59:49.830Z,-1.00
2018-03-14T11:02:23.197Z,-0.90
2018-03-14T11:04:50.263Z,-0.80
2018-03-14T11:07:16.763Z,-0.90
2018-03-14T11:09:43.475Z,-0.70
2018-03-14T11:12:12.441Z,-0.60
2018-03-14T11:14:39.190Z,-0.40
2018-03-14T11:17:05.882Z,-0.30
2018-03-14T11:19:32.407Z,-0.20
2018-03-14T11:22:00.068Z,-0.20
2018-03-14T11:24:26.571Z,-0.30
2018-03-14T11:26:55.090Z,-0.70
2018-03-14T11:29:21.672Z,-0.70
2018-03-14T11:31:48.304Z,-0.40
2018-03-14T11:34:16.536Z,-0.30
2018-03-14T11:36:43.126Z,-0.30
2018-03-14T11:39:09.926Z,-0.40
2018-03-14T11:41:37.353Z,-0.50
2018-03-14T11:44:04.154Z,-0.50
2018-03-14T11:46:30.772Z,-0.40
2018-03-14T11:48:57.387Z,-0.70
2018-03-14T11:51:24.009Z,-0.60
2018-03-14T11:53:51.273Z,-0.80
2018-03-14T11:56:18.757Z,-0.70
2018-03-14T11:58:46.473Z,-0.70
2018-03-14T12:01:13.086Z,-0.60
2018-03-14T12:03:39.648Z,-0.50
2018-03-14T12:06:06.296Z,-0.60
2018-03-14T12:08:32.993Z,-0.40
2018-03-14T12:11:00.291Z,-0.40
2018-03-14T12:13:26.834Z,-0.30
2018-03-14T12:15:53.522Z,-0.20
2018-03-14T12:18:21.261Z,-0.10
2018-03-14T12:20:48.350Z,-0.20
2018-03-14T12:23:15.893Z,0.10
2018-03-14T12:25:42.458Z,-0.10
2018-03-14T12:28:08.938Z,0.00
2018-03-14T12:30:35.562Z,0.10
2018-03-14T12:33:02.111Z,-0.40
2018-03-14T12:35:28.645Z,-0.50
2018-03-14T12:37:56.083Z,-0.10
2018-03-14T12:40:22.729Z,-0.20
2018-03-14T12:42:49.937Z,0.10
2018-03-14T12:45:16.419Z,0.10
2018-03-14T12:47:43.399Z,-0.10
2018-03-14T12:50:09.980Z,0.00
2018-03-14T12:52:36.549Z,-0.10
2018-03-14T12:55:03.198Z,0.30
2018-03-14T12:57:29.878Z,0.30
2018-03-14T12:59:56.444Z,-0.50
2018-03-14T13:02:23.044Z,-0.40
2018-03-14T13:04:49.491Z,-0.40
2018-03-14T13:07:16.089Z,-0.50
2018-03-14T13:09:42.834Z,-0.50
2018-03-14T13:12:09.938Z,-0.30
2018-03-14T13:14:36.866Z,0.10
2018-03-14T13:17:03.733Z,0.30
2018-03-14T13:19:30.251Z,0.20
2018-03-14T13:21:56.996Z,0.20
2018-03-14T13:24:24.022Z,0.00
2018-03-14T13:26:50.513Z,0.10
2018-03-14T13:29:17.105Z,0.10
2018-03-14T13:31:43.720Z,-0.10
2018-03-14T13:34:12.172Z,-0.20
2018-03-14T13:36:39.377Z,0.00
2018-03-14T13:39:06.141Z,0.00
2018-03-14T13:41:32.684Z,-0.20
2018-03-14T13:43:59.394Z,-0.10
2018-03-14T13:46:27.218Z,0.20
2018-03-14T13:48:53.817Z,0.20
2018-03-14T13:51:20.551Z,0.30
2018-03-14T13:53:48.265Z,-0.20
2018-03-14T13:56:16.626Z,-0.30
2018-03-14T13:58:43.456Z,-0.30
2018-03-14T14:01:10.536Z,-0.10
2018-03-14T14:03:38.026Z,0.10
2018-03-14T14:06:06.385Z,0.00
2018-03-14T14:08:32.921Z,0.00
2018-03-14T14:11:00.641Z,-0.10
2018-03-14T14:13:27.270Z,-0.20
2018-03-14T14:15:54.662Z,0.00
2018-03-14T14:18:21.141Z,-0.20
2018-03-14T14:20:47.678Z,0.00
2018-03-14T14:23:15.062Z,-0.10
2018-03-14T14:25:42.288Z,-0.10
2018-03-14T14:28:08.868Z,-0.10
2018-03-14T14:30:35.685Z,0.00
2018-03-14T14:33:03.035Z,-0.20
2018-03-14T14:35:29.964Z,-0.20
2018-03-14T14:37:57.229Z,0.20
2018-03-14T14:40:23.910Z,0.20
2018-03-14T14:42:50.472Z,0.30
2018-03-14T14:45:17.109Z,0.20
2018-03-14T14:47:44.705Z,0.10
2018-03-14T14:50:11.167Z,0.00
2018-03-14T14:52:37.775Z,-0.10
2018-03-14T14:55:05.183Z,-0.30
2018-03-14T14:57:32.039Z,-0.30
2018-03-14T14:59:58.640Z,-0.30
2018-03-14T15:02:25.149Z,-0.20
2018-03-14T15:04:51.982Z,-0.40
2018-03-14T15:07:19.389Z,-0.60
2018-03-14T15:09:53.523Z,-0.40
2018-03-14T15:12:20.081Z,-0.40
2018-03-14T15:14:47.901Z,-0.60
2018-03-14T15:17:14.487Z,-0.60
2018-03-14T15:19:42.028Z,-0.60
2018-03-14T15:22:08.952Z,-0.60
2018-03-14T15:24:35.503Z,-0.70
2018-03-14T15:27:02.098Z,-0.70
2018-03-14T15:29:29.185Z,-0.70
2018-03-14T15:31:56.993Z,-0.60
2018-03-14T15:34:23.576Z,-0.50
2018-03-14T15:36:50.097Z,-0.70
2018-03-14T15:39:16.704Z,-0.80
2018-03-14T15:41:43.308Z,-0.70
2018-03-14T15:44:10.005Z,-0.70
2018-03-14T15:46:36.488Z,-0.80
2018-03-14T15:49:03.141Z,-0.90
2018-03-14T15:51:30.445Z,-0.80
2018-03-14T15:53:58.003Z,-0.80
2018-03-14T15:56:27.220Z,-1.00
2018-03-14T15:58:55.696Z,-0.80
2018-03-14T16:01:22.677Z,-0.80
2018-03-14T16:03:50.051Z,-1.00
2018-03-14T16:06:16.593Z,-1.00
2018-03-14T16:08:43.949Z,-1.00
2018-03-14T16:11:10.504Z,-0.90
2018-03-14T16:13:36.997Z,-0.80
2018-03-14T16:16:03.649Z,-0.80
2018-03-14T16:18:30.204Z,-0.90
2018-03-14T16:20:56.671Z,-1.20
2018-03-14T16:23:24.041Z,-1.40
2018-03-14T16:25:50.696Z,-1.40
2018-03-14T16:28:17.654Z,-1.40
2018-03-14T16:30:45.472Z,-1.60
2018-03-14T16:33:12.783Z,-1.60
2018-03-14T16:35:39.314Z,-1.60
2018-03-14T16:38:05.961Z,-1.60
2018-03-14T16:40:32.980Z,-1.50
2018-03-14T16:43:00.161Z,-1.50
2018-03-14T16:45:27.196Z,-1.50
2018-03-14T16:47:53.716Z,-1.50
2018-03-14T16:50:20.495Z,-1.40
2018-03-14T16:52:47.001Z,-1.50
2018-03-14T16:55:13.634Z,-1.50
2018-03-14T16:57:40.076Z,-1.60
2018-03-14T17:00:06.750Z,-1.60
2018-03-14T17:02:33.310Z,-1.60
2018-03-14T17:04:59.854Z,-1.60
2018-03-14T17:07:27.244Z,-1.70
2018-03-14T17:09:53.795Z,-1.80
2018-03-14T17:12:20.296Z,-1.80
2018-03-14T17:14:47.673Z,-1.90
2018-03-14T17:17:15.009Z,-1.70
2018-03-14T17:19:41.537Z,-1.70
2018-03-14T17:22:08.190Z,-1.70
2018-03-14T17:24:34.927Z,-1.80
2018-03-14T17:27:01.409Z,-1.80
2018-03-14T17:29:27.935Z,-1.80
2018-03-14T17:31:55.387Z,-1.90
2018-03-14T17:34:21.961Z,-2.00
2018-03-14T17:36:48.428Z,-2.00
2018-03-14T17:39:14.992Z,-1.90
2018-03-14T17:41:42.194Z,-1.80
2018-03-14T17:44:09.697Z,-1.90
2018-03-14T17:46:37.037Z,-2.00
2018-03-14T17:49:03.538Z,-2.00
2018-03-14T17:51:31.154Z,-2.20
2018-03-14T17:53:58.759Z,-2.10
2018-03-14T17:56:26.076Z,-2.20
2018-03-14T17:58:52.657Z,-2.20
2018-03-14T18:01:19.890Z,-2.20
2018-03-14T18:03:46.370Z,-2.20
2018-03-14T18:06:12.792Z,-2.30
2018-03-14T18:08:39.217Z,-2.20
2018-03-14T18:11:05.801Z,-2.30
2018-03-14T18:13:32.394Z,-2.40
2018-03-14T18:15:58.849Z,-2.60
2018-03-14T18:18:25.285Z,-2.50
2018-03-14T18:20:51.766Z,-2.50
2018-03-14T18:23:18.363Z,-2.50
2018-03-14T18:25:45.621Z,-2.60
2018-03-14T18:28:12.126Z,-2.60
2018-03-14T18:30:39.382Z,-2.50
2018-03-14T18:33:07.219Z,-2.40
2018-03-14T18:35:34.443Z,-2.60
2018-03-14T18:38:00.958Z,-2.50
2018-03-14T18:40:28.219Z,-2.60
2018-03-14T18:42:55.669Z,-2.60
2018-03-14T18:45:22.221Z,-2.60
2018-03-14T18:47:48.713Z,-2.70
2018-03-14T18:50:15.218Z,-2.80
2018-03-14T18:52:41.668Z,-2.70
2018-03-14T18:55:08.965Z,-2.50
2018-03-14T18:57:35.719Z,-2.60
2018-03-14T19:00:02.327Z,-2.60
2018-03-14T19:02:28.848Z,-2.80
2018-03-14T19:04:55.344Z,-2.80
2018-03-14T19:07:21.899Z,-2.90
2018-03-14T19:09:49.124Z,-3.00
2018-03-14T19:12:15.770Z,-3.10
2018-03-14T19:14:42.188Z,-2.90
2018-03-14T19:17:09.372Z,-2.80
2018-03-14T19:19:35.882Z,-2.80
2018-03-14T19:22:02.572Z,-2.80
2018-03-14T19:24:29.896Z,-2.80
2018-03-14T19:26:56.441Z,-2.80
2018-03-14T19:29:28.819Z,-3.00
2018-03-14T19:31:56.025Z,-2.90
2018-03-14T19:34:22.446Z,-2.90
2018-03-14T19:36:48.913Z,-2.90
2018-03-14T19:39:15.438Z,-3.00
2018-03-14T19:41:41.891Z,-2.90
2018-03-14T19:44:08.393Z,-3.00
2018-03-14T19:46:34.878Z,-2.90
2018-03-14T19:49:02.189Z,-3.00
2018-03-14T19:51:28.729Z,-3.00
2018-03-14T19:53:55.293Z,-3.10
2018-03-14T19:56:21.999Z,-3.00
2018-03-14T19:58:48.547Z,-3.10
2018-03-14T20:01:15.055Z,-3.10
2018-03-14T20:03:41.642Z,-3.20
2018-03-14T20:06:08.944Z,-3.30
2018-03-14T20:08:35.395Z,-3.30
2018-03-14T20:11:02.710Z,-3.40
2018-03-14T20:13:29.283Z,-3.40
2018-03-14T20:15:55.758Z,-3.40
2018-03-14T20:18:22.362Z,-3.30
2018-03-14T20:20:48.947Z,-3.30
2018-03-14T20:23:15.506Z,-3.30
2018-03-14T20:25:42.001Z,-3.30
2018-03-14T20:28:09.292Z,-3.40
2018-03-14T20:30:35.895Z,-3.50
2018-03-14T20:33:02.416Z,-3.50
2018-03-14T20:35:29.037Z,-3.60
2018-03-14T20:37:55.519Z,-3.60
2018-03-14T20:40:22.184Z,-3.70
2018-03-14T20:42:48.710Z,-3.60
2018-03-14T20:45:15.101Z,-3.70
2018-03-14T20:47:41.706Z,-3.70
2018-03-14T20:50:08.128Z,-3.70
2018-03-14T20:52:34.762Z,-3.60
2018-03-14T20:55:01.341Z,-3.70
2018-03-14T20:57:27.831Z,-3.70
2018-03-14T20:59:54.255Z,-3.70
2018-03-14T21:02:20.761Z,-3.70
2018-03-14T21:04:47.975Z,-3.70
2018-03-14T21:07:14.448Z,-3.80
2018-03-14T21:09:41.754Z,-3.80
2018-03-14T21:12:08.205Z,-3.80
2018-03-14T21:14:34.813Z,-3.80
2018-03-14T21:17:01.296Z,-3.80
2018-03-14T21:19:28.551Z,-3.80
2018-03-14T21:21:55.152Z,-3.90
2018-03-14T21:24:21.698Z,-3.80
2018-03-14T21:26:48.164Z,-3.90
2018-03-14T21:29:15.554Z,-3.90
2018-03-14T21:31:42.145Z,-3.90
2018-03-14T21:34:08.608Z,-3.90
2018-03-14T21:36:35.197Z,-4.00
2018-03-14T21:39:01.660Z,-4.00
2018-03-14T21:41:28.205Z,-4.00
2018-03-14T21:43:54.703Z,-4.00
2018-03-14T21:46:21.381Z,-4.10
2018-03-14T21:48:47.875Z,-4.10
2018-03-14T21:51:15.148Z,-4.10
2018-03-14T21:53:42.350Z,-4.10
2018-03-14T21:56:08.823Z,-4.10
2018-03-14T21:58:35.389Z,-4.10
2018-03-14T22:01:02.588Z,-4.10
2018-03-14T22:03:28.997Z,-4.10
2018-03-14T22:05:56.352Z,-4.10
2018-03-14T22:08:23.779Z,-4.10
2018-03-14T22:10:50.682Z,-4.10
2018-03-14T22:13:17.228Z,-4.10
2018-03-14T22:15:44.593Z,-4.10
2018-03-14T22:18:12.469Z,-4.10
2018-03-14T22:20:39.865Z,-4.20
2018-03-14T22:23:06.292Z,-4.20
2018-03-14T22:25:32.849Z,-4.30
2018-03-14T22:28:00.051Z,-4.30
2018-03-14T22:30:27.220Z,-4.30
2018-03-14T22:32:53.649Z,-4.30
2018-03-14T22:35:20.110Z,-4.30
2018-03-14T22:37:47.257Z,-4.30
2018-03-14T22:40:13.845Z,-4.30
2018-03-14T22:42:40.319Z,-4.20
2018-03-14T22:45:06.821Z,-4.30
2018-03-14T22:47:33.301Z,-4.30
2018-03-14T22:49:59.852Z,-4.30
2018-03-14T22:52:26.282Z,-4.30
2018-03-14T22:54:52.717Z,-4.30
2018-03-14T22:57:19.290Z,-4.40
2018-03-14T22:59:45.711Z,-4.40
2018-03-14T23:02:12.153Z,-4.40
2018-03-14T23:04:38.688Z,-4.40
2018-03-14T23:07:05.109Z,-4.40
2018-03-14T23:09:31.764Z,-4.40
2018-03-14T23:11:58.269Z,-4.50
2018-03-14T23:14:24.789Z,-4.60
2018-03-14T23:16:51.984Z,-4.70
2018-03-14T23:19:19.156Z,-4.70
2018-03-14T23:21:46.333Z,-4.70
2018-03-14T23:24:12.881Z,-4.70
2018-03-14T23:26:40.067Z,-4.90
2018-03-14T23:29:06.475Z,-4.90
2018-03-14T23:31:32.889Z,-4.80
2018-03-14T23:34:00.925Z,-4.80
2018-03-14T23:36:27.435Z,-4.80
2018-03-14T23:38:53.842Z,-4.80
2018-03-14T23:41:21.058Z,-4.80
2018-03-14T23:43:47.567Z,-4.80
2018-03-14T23:46:14.875Z,-4.70
2018-03-14T23:48:41.418Z,-4.80
2018-03-14T23:51:08.625Z,-4.80
2018-03-14T23:53:35.106Z,-4.80
2018-03-14T23:56:01.638Z,-4.70
2018-03-14T23:58:28.061Z,-4.70
